createdAt,value
2018-05-04T00:00:36.751Z,67.96
2018-05-04T00:03:04.390Z,68.45
2018-05-04T00:05:31.996Z,68.95
2018-05-04T00:07:59.739Z,68.79
2018-05-04T00:10:27.347Z,69.08
2018-05-04T00:12:55.062Z,69.30
2018-05-04T00:15:22.663Z,69.51
2018-05-04T00:17:50.395Z,69.97
2018-05-04T00:20:18.003Z,70.00
2018-05-04T00:22:45.636Z,69.47
2018-05-04T00:25:13.271Z,69.87
2018-05-04T00:27:40.884Z,70.20
2018-05-04T00:30:08.699Z,70.43
2018-05-04T00:32:36.363Z,70.50
2018-05-04T00:35:03.996Z,70.55
2018-05-04T00:37:31.695Z,70.74
2018-05-04T00:39:59.360Z,70.88
2018-05-04T00:42:27.014Z,70.72
2018-05-04T00:44:54.678Z,70.98
2018-05-04T00:47:22.278Z,71.08
2018-05-04T00:49:49.902Z,71.10
2018-05-04T00:52:17.562Z,71.20
2018-05-04T00:54:45.226Z,71.30
2018-05-04T00:57:12.840Z,71.37
2018-05-04T00:59:41.969Z,71.48
2018-05-04T01:02:09.584Z,71.48
2018-05-04T01:04:37.314Z,71.63
2018-05-04T01:07:04.915Z,71.57
2018-05-04T01:09:32.634Z,71.40
2018-05-04T01:12:00.239Z,71.19
2018-05-04T01:14:27.862Z,71.62
2018-05-04T01:16:55.534Z,71.66
2018-05-04T01:19:23.172Z,71.67
2018-05-04T01:21:50.775Z,71.78
2018-05-04T01:24:18.399Z,71.44
2018-05-04T01:26:46.002Z,71.49
2018-05-04T01:29:13.629Z,71.58
2018-05-04T01:31:41.303Z,71.13
2018-05-04T01:34:08.963Z,71.44
2018-05-04T01:36:36.571Z,71.92
2018-05-04T01:39:04.183Z,72.11
2018-05-04T01:41:32.663Z,72.06
2018-05-04T01:44:00.322Z,71.86
2018-05-04T01:46:27.987Z,71.76
2018-05-04T01:48:55.657Z,71.67
2018-05-04T01:51:23.282Z,71.48
2018-05-04T01:53:50.974Z,71.46
2018-05-04T01:56:18.643Z,71.67
2018-05-04T01:58:46.302Z,71.45
2018-05-04T02:01:13.962Z,71.04
2018-05-04T02:03:41.572Z,71.37
2018-05-04T02:06:09.287Z,71.42
2018-05-04T02:08:36.952Z,71.65
2018-05-04T02:11:04.624Z,71.39
2018-05-04T02:13:32.272Z,70.82
2018-05-04T02:15:59.902Z,70.77
2018-05-04T02:18:27.608Z,71.05
2018-05-04T02:20:55.234Z,71.20
2018-05-04T02:23:22.853Z,71.25
2018-05-04T02:25:50.479Z,71.51
2018-05-04T02:28:18.086Z,71.58
2018-05-04T02:30:45.707Z,71.73
2018-05-04T02:33:13.315Z,71.84
2018-05-04T02:35:40.946Z,71.80
2018-05-04T02:38:08.547Z,71.65
2018-05-04T02:40:36.177Z,71.82
2018-05-04T02:43:03.823Z,71.84
2018-05-04T02:45:31.454Z,71.66
2018-05-04T02:47:59.060Z,72.11
2018-05-04T02:50:26.714Z,72.21
2018-05-04T02:52:54.372Z,72.24
2018-05-04T02:55:22.018Z,72.29
2018-05-04T02:57:49.635Z,72.12
2018-05-04T03:00:17.364Z,71.85
2018-05-04T03:02:45.024Z,71.71
2018-05-04T03:05:13.190Z,71.96
2018-05-04T03:07:40.822Z,71.78
2018-05-04T03:10:08.514Z,71.93
2018-05-04T03:12:36.143Z,72.01
2018-05-04T03:15:03.849Z,72.45
2018-05-04T03:17:31.512Z,72.92
2018-05-04T03:19:59.167Z,72.74
2018-05-04T03:22:26.830Z,72.45
2018-05-04T03:24:54.494Z,72.53
2018-05-04T03:27:22.114Z,72.56
2018-05-04T03:29:49.714Z,72.42
2018-05-04T03:32:17.343Z,72.53
2018-05-04T03:34:44.946Z,72.59
2018-05-04T03:37:12.575Z,72.14
2018-05-04T03:39:40.263Z,72.33
2018-05-04T03:42:07.895Z,72.49
2018-05-04T03:44:35.590Z,72.38
2018-05-04T03:47:03.219Z,72.19
2018-05-04T03:49:30.919Z,72.15
2018-05-04T03:51:58.592Z,72.28
2018-05-04T03:54:26.210Z,72.27
2018-05-04T03:57:05.524Z,71.86
2018-05-04T03:59:45.014Z,71.79
2018-05-04T04:02:24.669Z,71.47
2018-05-04T04:04:52.328Z,71.80
2018-05-04T04:07:19.930Z,71.57
2018-05-04T04:09:47.646Z,71.55
2018-05-04T04:12:15.255Z,71.53
2018-05-04T04:14:42.888Z,71.51
2018-05-04T04:17:10.534Z,71.41
2018-05-04T04:19:38.159Z,71.29
2018-05-04T04:22:05.760Z,71.34
2018-05-04T04:24:33.391Z,71.33
2018-05-04T04:27:01.084Z,71.13
2018-05-04T04:29:28.711Z,70.88
2018-05-04T04:31:56.375Z,70.73
2018-05-04T04:34:24.018Z,70.46
2018-05-04T04:36:51.735Z,70.35
2018-05-04T04:39:19.363Z,69.92
2018-05-04T04:41:47.064Z,69.83
2018-05-04T04:44:14.723Z,69.67
2018-05-04T04:46:42.383Z,69.58
2018-05-04T04:49:10.048Z,69.60
2018-05-04T04:51:37.745Z,69.95
2018-05-04T04:54:05.474Z,70.25
2018-05-04T04:56:33.134Z,70.40
2018-05-04T04:59:00.762Z,71.04
2018-05-04T05:01:28.370Z,71.50
2018-05-04T05:03:55.994Z,72.13
2018-05-04T05:06:23.691Z,72.60
2018-05-04T05:08:51.335Z,72.81
2018-05-04T05:11:18.946Z,72.78
2018-05-04T05:13:46.570Z,72.87
2018-05-04T05:16:14.198Z,72.97
2018-05-04T05:18:41.904Z,73.22
2018-05-04T05:21:09.536Z,73.28
2018-05-04T05:23:37.315Z,73.17
2018-05-04T05:26:04.880Z,73.24
2018-05-04T05:28:32.483Z,73.06
2018-05-04T05:31:00.115Z,72.86
2018-05-04T05:33:27.728Z,72.62
2018-05-04T05:35:55.431Z,72.19
2018-05-04T05:38:23.095Z,71.69
2018-05-04T05:40:50.762Z,71.68
2018-05-04T05:43:18.362Z,71.61
2018-05-04T05:45:46.081Z,71.28
2018-05-04T05:48:13.682Z,71.03
2018-05-04T05:50:41.302Z,70.85
2018-05-04T05:53:08.975Z,70.54
2018-05-04T05:55:36.599Z,70.09
2018-05-04T05:58:04.303Z,69.62
2018-05-04T06:00:31.930Z,69.38
2018-05-04T06:02:59.544Z,69.11
2018-05-04T06:05:27.382Z,68.84
2018-05-04T06:07:55.047Z,68.54
2018-05-04T06:10:22.683Z,68.46
2018-05-04T06:12:50.279Z,68.29
2018-05-04T06:15:17.933Z,68.20
2018-05-04T06:17:45.534Z,68.07
2018-05-04T06:20:13.154Z,67.76
2018-05-04T06:22:40.819Z,67.33
2018-05-04T06:25:08.446Z,67.29
2018-05-04T06:27:36.084Z,67.07
2018-05-04T06:30:03.702Z,66.79
2018-05-04T06:32:31.379Z,66.53
2018-05-04T06:34:59.032Z,66.51
2018-05-04T06:37:26.667Z,66.45
2018-05-04T06:39:54.363Z,66.15
2018-05-04T06:42:22.023Z,66.08
2018-05-04T06:44:49.757Z,65.82
2018-05-04T06:47:17.464Z,65.76
2018-05-04T06:49:45.111Z,65.95
2018-05-04T06:52:12.779Z,66.10
2018-05-04T06:54:40.439Z,65.21
2018-05-04T06:57:08.103Z,65.17
2018-05-04T06:59:35.762Z,64.58
2018-05-04T07:02:03.386Z,63.96
2018-05-04T07:04:31.004Z,63.59
2018-05-04T07:06:58.750Z,63.71
2018-05-04T07:09:26.366Z,63.80
2018-05-04T07:11:54.070Z,63.48
2018-05-04T07:14:21.737Z,62.88
2018-05-04T07:16:49.371Z,62.80
2018-05-04T07:19:17.057Z,61.97
2018-05-04T07:21:44.727Z,61.25
2018-05-04T07:24:12.486Z,61.16
2018-05-04T07:26:40.117Z,60.96
2018-05-04T07:29:07.737Z,60.96
2018-05-04T07:31:35.379Z,59.86
2018-05-04T07:34:03.036Z,59.40
2018-05-04T07:36:30.648Z,59.24
2018-05-04T07:38:58.360Z,58.77
2018-05-04T07:41:25.974Z,58.31
2018-05-04T07:43:53.686Z,57.64
2018-05-04T07:46:21.303Z,57.48
2018-05-04T07:48:48.947Z,57.61
2018-05-04T07:51:16.579Z,57.87
2018-05-04T07:53:44.252Z,56.90
2018-05-04T07:56:11.854Z,56.10
2018-05-04T07:58:39.483Z,55.57
2018-05-04T08:01:07.135Z,55.82
2018-05-04T08:03:34.791Z,55.59
2018-05-04T08:06:02.459Z,54.72
2018-05-04T08:08:30.120Z,54.37
2018-05-04T08:10:57.783Z,53.58
2018-05-04T08:13:25.421Z,50.68
2018-05-04T08:15:53.026Z,50.44
2018-05-04T08:18:20.664Z,50.45
2018-05-04T08:20:48.323Z,49.55
2018-05-04T08:23:15.982Z,48.95
2018-05-04T08:25:43.651Z,49.01
2018-05-04T08:28:11.283Z,49.07
2018-05-04T08:30:38.883Z,49.20
2018-05-04T08:33:06.534Z,48.83
2018-05-04T08:35:34.208Z,48.42
2018-05-04T08:38:01.863Z,48.54
2018-05-04T08:40:29.475Z,48.50
2018-05-04T08:42:57.256Z,48.69
2018-05-04T08:45:24.842Z,49.26
2018-05-04T08:47:52.507Z,49.28
2018-05-04T08:50:20.134Z,49.08
2018-05-04T08:52:47.739Z,48.68
2018-05-04T08:55:15.371Z,48.68
2018-05-04T08:57:42.980Z,48.15
2018-05-04T09:00:10.612Z,48.46
2018-05-04T09:02:38.224Z,48.41
2018-05-04T09:05:05.964Z,46.58
2018-05-04T09:07:33.604Z,45.04
2018-05-04T09:10:01.276Z,44.82
2018-05-04T09:12:28.887Z,44.40
2018-05-04T09:14:56.521Z,44.97
2018-05-04T09:17:24.152Z,44.93
2018-05-04T09:19:51.824Z,44.28
2018-05-04T09:22:19.451Z,44.70
2018-05-04T09:24:47.087Z,44.56
2018-05-04T09:27:14.703Z,44.78
2018-05-04T09:29:42.869Z,44.94
2018-05-04T09:32:10.539Z,45.33
2018-05-04T09:34:38.175Z,45.24
2018-05-04T09:37:05.862Z,45.74
2018-05-04T09:39:33.490Z,45.75
2018-05-04T09:42:01.187Z,45.92
2018-05-04T09:44:28.818Z,45.89
2018-05-04T09:46:56.430Z,45.30
2018-05-04T09:49:24.215Z,44.72
2018-05-04T09:51:51.826Z,43.94
2018-05-04T09:54:19.461Z,44.21
2018-05-04T09:56:47.071Z,43.45
2018-05-04T09:59:14.731Z,43.36
2018-05-04T10:01:42.384Z,42.48
2018-05-04T10:04:10.055Z,41.37
2018-05-04T10:06:37.715Z,41.94
2018-05-04T10:09:05.348Z,41.75
2018-05-04T10:11:32.995Z,41.58
2018-05-04T10:14:00.604Z,40.55
2018-05-04T10:16:28.263Z,40.63
2018-05-04T10:18:55.967Z,41.25
2018-05-04T10:21:23.573Z,41.01
2018-05-04T10:23:51.251Z,40.03
2018-05-04T10:26:18.891Z,40.59
2018-05-04T10:28:46.577Z,41.55
2018-05-04T10:31:14.237Z,40.29
2018-05-04T10:33:41.901Z,40.36
2018-05-04T10:36:09.562Z,40.61
2018-05-04T10:38:37.205Z,39.89
2018-05-04T10:41:04.891Z,39.08
2018-05-04T10:43:32.448Z,38.87
2018-05-04T10:46:00.074Z,38.40
2018-05-04T10:48:27.687Z,38.31
2018-05-04T10:50:55.314Z,38.10
2018-05-04T10:53:23.003Z,38.13
2018-05-04T10:55:50.631Z,38.04
2018-05-04T10:58:18.247Z,37.94
2018-05-04T11:00:45.883Z,37.50
2018-05-04T11:03:13.486Z,37.59
2018-05-04T11:05:41.205Z,36.87
2018-05-04T11:08:08.821Z,36.43
2018-05-04T11:10:36.463Z,35.83
2018-05-04T11:13:04.098Z,34.79
2018-05-04T11:15:31.703Z,33.79
2018-05-04T11:17:59.426Z,32.91
2018-05-04T11:20:27.029Z,32.82
2018-05-04T11:22:54.664Z,32.73
2018-05-04T11:25:22.368Z,33.14
2018-05-04T11:27:49.968Z,33.21
2018-05-04T11:30:17.578Z,33.80
2018-05-04T11:32:45.202Z,33.62
2018-05-04T11:35:12.812Z,33.74
2018-05-04T11:37:40.441Z,32.83
2018-05-04T11:40:08.059Z,32.91
2018-05-04T11:42:35.682Z,32.40
2018-05-04T11:45:03.399Z,30.77
2018-05-04T11:47:31.027Z,30.12
2018-05-04T11:49:58.732Z,29.57
2018-05-04T11:52:26.374Z,30.93
2018-05-04T11:54:54.054Z,31.67
2018-05-04T11:57:21.714Z,32.14
2018-05-04T11:59:49.374Z,32.59
2018-05-04T12:02:17.043Z,32.34
2018-05-04T12:04:44.653Z,32.68
2018-05-04T12:07:12.291Z,31.82
2018-05-04T12:09:39.931Z,30.96
2018-05-04T12:12:07.563Z,30.28
2018-05-04T12:14:35.184Z,31.04
2018-05-04T12:17:02.818Z,32.24
2018-05-04T12:19:30.471Z,32.67
2018-05-04T12:21:58.107Z,33.25
2018-05-04T12:24:25.797Z,32.37
2018-05-04T12:26:53.411Z,33.19
2018-05-04T12:29:21.099Z,33.28
2018-05-04T12:31:48.786Z,34.30
2018-05-04T12:34:16.419Z,34.37
2018-05-04T12:36:44.109Z,34.67
2018-05-04T12:39:11.773Z,35.29
2018-05-04T12:41:39.395Z,35.77
2018-05-04T12:44:07.030Z,34.96
2018-05-04T12:46:34.663Z,35.33
2018-05-04T12:49:03.174Z,35.37
2018-05-04T12:51:30.802Z,34.94
2018-05-04T12:53:58.434Z,34.37
2018-05-04T12:56:26.043Z,34.37
2018-05-04T12:58:53.675Z,33.89
2018-05-04T13:01:21.355Z,34.46
2018-05-04T13:03:49.014Z,32.56
2018-05-04T13:06:16.618Z,32.20
2018-05-04T13:08:44.242Z,32.65
2018-05-04T13:11:11.898Z,33.31
2018-05-04T13:13:39.539Z,33.59
2018-05-04T13:16:07.163Z,33.17
2018-05-04T13:18:34.795Z,32.52
2018-05-04T13:21:02.398Z,31.72
2018-05-04T13:23:30.027Z,30.80
2018-05-04T13:25:57.631Z,32.20
2018-05-04T13:28:25.340Z,33.20
2018-05-04T13:30:52.994Z,34.27
2018-05-04T13:33:20.671Z,34.24
2018-05-04T13:35:48.250Z,34.20
2018-05-04T13:38:15.986Z,34.19
2018-05-04T13:40:43.587Z,34.62
2018-05-04T13:43:11.200Z,34.74
2018-05-04T13:45:38.838Z,34.63
2018-05-04T13:48:06.463Z,34.38
2018-05-04T13:50:34.090Z,34.16
2018-05-04T13:53:01.767Z,34.26
2018-05-04T13:55:29.419Z,34.01
2018-05-04T13:57:57.023Z,34.21
2018-05-04T14:00:24.742Z,33.79
2018-05-04T14:02:52.355Z,32.96
2018-05-04T14:05:19.978Z,32.42
2018-05-04T14:07:47.639Z,32.28
2018-05-04T14:10:15.274Z,31.89
2018-05-04T14:12:42.998Z,31.88
2018-05-04T14:15:10.592Z,32.06
2018-05-04T14:17:38.277Z,32.36
2018-05-04T14:20:05.952Z,32.23
2018-05-04T14:22:33.611Z,32.34
2018-05-04T14:25:01.271Z,32.75
2018-05-04T14:27:28.871Z,33.04
2018-05-04T14:29:56.526Z,33.47
2018-05-04T14:32:24.150Z,34.03
2018-05-04T14:34:51.901Z,34.00
2018-05-04T14:37:19.478Z,33.94
2018-05-04T14:39:47.116Z,33.46
2018-05-04T14:42:14.727Z,33.50
2018-05-04T14:44:42.360Z,33.72
2018-05-04T14:47:10.039Z,33.33
2018-05-04T14:49:37.803Z,33.72
2018-05-04T14:52:05.412Z,33.99
2018-05-04T14:54:33.019Z,33.63
2018-05-04T14:57:00.658Z,33.72
2018-05-04T14:59:28.266Z,34.00
2018-05-04T15:01:55.889Z,33.82
2018-05-04T15:04:23.567Z,33.65
2018-05-04T15:06:51.231Z,33.46
2018-05-04T15:09:18.895Z,33.79
2018-05-04T15:11:46.569Z,33.93
2018-05-04T15:14:14.213Z,34.15
2018-05-04T15:16:41.839Z,34.46
2018-05-04T15:19:09.457Z,34.20
2018-05-04T15:21:37.104Z,34.04
2018-05-04T15:24:04.767Z,34.51
2018-05-04T15:26:32.394Z,34.52
2018-05-04T15:28:59.993Z,35.42
2018-05-04T15:31:27.728Z,36.01
2018-05-04T15:33:55.291Z,36.47
2018-05-04T15:36:22.926Z,36.84
2018-05-04T15:38:50.531Z,37.58
2018-05-04T15:41:18.199Z,37.63
2018-05-04T15:43:45.799Z,38.26
2018-05-04T15:46:13.417Z,38.47
2018-05-04T15:48:46.763Z,38.61
2018-05-04T15:51:20.023Z,38.57
2018-05-04T15:53:47.625Z,38.53
2018-05-04T15:56:15.260Z,38.63
2018-05-04T15:58:42.868Z,38.69
2018-05-04T16:01:10.489Z,38.51
2018-05-04T16:03:38.114Z,38.53
2018-05-04T16:06:05.794Z,38.63
2018-05-04T16:08:33.370Z,38.70
2018-05-04T16:11:00.983Z,38.54
2018-05-04T16:13:28.680Z,39.16
2018-05-04T16:15:56.322Z,40.52
2018-05-04T16:18:24.007Z,41.24
2018-05-04T16:20:51.658Z,41.47
2018-05-04T16:23:19.291Z,41.80
2018-05-04T16:25:46.894Z,42.20
2018-05-04T16:28:14.527Z,42.44
2018-05-04T16:30:42.137Z,42.64
2018-05-04T16:33:09.765Z,42.81
2018-05-04T16:35:37.432Z,42.93
2018-05-04T16:38:05.087Z,42.97
2018-05-04T16:40:32.754Z,42.40
2018-05-04T16:43:00.391Z,42.11
2018-05-04T16:45:28.069Z,41.66
2018-05-04T16:48:01.450Z,41.28
2018-05-04T16:50:29.062Z,41.02
2018-05-04T16:52:56.789Z,40.95
2018-05-04T16:55:24.407Z,40.48
2018-05-04T16:57:52.043Z,40.14
2018-05-04T17:00:19.645Z,40.28
2018-05-04T17:02:47.274Z,40.21
2018-05-04T17:05:14.887Z,40.18
2018-05-04T17:07:42.523Z,40.31
2018-05-04T17:10:10.230Z,40.27
2018-05-04T17:12:37.858Z,40.13
2018-05-04T17:15:05.467Z,40.31
2018-05-04T17:17:33.103Z,40.19
2018-05-04T17:20:00.731Z,40.46
2018-05-04T17:22:28.343Z,40.70
2018-05-04T17:24:55.975Z,41.15
2018-05-04T17:27:23.591Z,41.73
2018-05-04T17:29:51.222Z,42.24
2018-05-04T17:32:18.823Z,42.77
2018-05-04T17:34:46.459Z,43.35
2018-05-04T17:37:14.070Z,43.85
2018-05-04T17:39:41.704Z,44.39
2018-05-04T17:42:09.311Z,45.25
2018-05-04T17:44:36.947Z,45.36
2018-05-04T17:47:04.550Z,45.74
2018-05-04T17:49:32.210Z,46.42
2018-05-04T17:51:59.813Z,46.98
2018-05-04T17:54:27.603Z,47.64
2018-05-04T17:56:55.211Z,48.26
2018-05-04T17:59:22.847Z,48.79
2018-05-04T18:01:50.459Z,49.29
2018-05-04T18:04:18.094Z,49.66
2018-05-04T18:06:45.750Z,50.21
2018-05-04T18:09:13.374Z,50.34
2018-05-04T18:11:41.025Z,50.62
2018-05-04T18:14:08.743Z,51.14
2018-05-04T18:16:36.416Z,51.28
2018-05-04T18:19:04.745Z,51.63
2018-05-04T18:21:32.371Z,51.88
2018-05-04T18:24:00.005Z,52.01
2018-05-04T18:26:27.615Z,52.17
2018-05-04T18:28:55.327Z,52.18
2018-05-04T18:31:22.931Z,52.58
2018-05-04T18:33:50.556Z,52.67
2018-05-04T18:36:18.202Z,52.76
2018-05-04T18:38:45.819Z,52.95
2018-05-04T18:41:13.543Z,53.32
2018-05-04T18:43:41.198Z,53.44
2018-05-04T18:46:08.851Z,53.71
2018-05-04T18:48:36.459Z,54.06
2018-05-04T18:51:04.087Z,54.31
2018-05-04T18:53:31.695Z,54.59
2018-05-04T18:55:59.327Z,54.87
2018-05-04T18:58:26.939Z,55.20
2018-05-04T19:00:54.631Z,55.34
2018-05-04T19:03:22.727Z,55.49
2018-05-04T19:05:50.357Z,55.67
2018-05-04T19:08:17.966Z,55.90
2018-05-04T19:10:45.700Z,56.25
2018-05-04T19:13:13.356Z,56.37
2018-05-04T19:15:40.995Z,56.56
2018-05-04T19:18:08.690Z,56.61
2018-05-04T19:20:36.414Z,56.63
2018-05-04T19:23:03.971Z,56.84
2018-05-04T19:25:31.603Z,56.92
2018-05-04T19:27:59.217Z,57.03
2018-05-04T19:30:26.847Z,57.25
2018-05-04T19:32:54.459Z,57.33
2018-05-04T19:35:22.122Z,57.32
2018-05-04T19:37:49.881Z,57.49
2018-05-04T19:40:17.511Z,57.53
2018-05-04T19:42:45.210Z,57.75
2018-05-04T19:45:12.822Z,57.88
2018-05-04T19:47:40.472Z,57.76
2018-05-04T19:50:08.078Z,57.83
2018-05-04T19:52:35.800Z,57.89
2018-05-04T19:55:03.341Z,58.02
2018-05-04T19:57:31.096Z,58.12
2018-05-04T19:59:58.756Z,58.29
2018-05-04T20:02:26.419Z,58.47
2018-05-04T20:04:54.021Z,58.63
2018-05-04T20:07:21.664Z,58.89
2018-05-04T20:09:49.280Z,59.02
2018-05-04T20:12:17.023Z,59.19
2018-05-04T20:14:44.635Z,59.42
2018-05-04T20:17:12.276Z,59.62
2018-05-04T20:19:39.883Z,59.74
2018-05-04T20:22:07.518Z,59.70
2018-05-04T20:24:35.121Z,59.71
2018-05-04T20:27:02.823Z,59.74
2018-05-04T20:29:30.496Z,59.74
2018-05-04T20:31:58.154Z,59.80
2018-05-04T20:34:25.754Z,60.14
2018-05-04T20:36:53.515Z,60.24
2018-05-04T20:39:21.127Z,60.33
2018-05-04T20:41:48.810Z,60.28
2018-05-04T20:44:16.463Z,60.25
2018-05-04T20:46:44.127Z,60.27
2018-05-04T20:49:11.793Z,60.28
2018-05-04T20:51:39.435Z,60.28
2018-05-04T20:54:07.120Z,60.30
2018-05-04T20:56:34.735Z,60.11
2018-05-04T20:59:02.374Z,60.18
2018-05-04T21:01:29.983Z,60.35
2018-05-04T21:03:57.631Z,60.54
2018-05-04T21:06:25.254Z,60.71
2018-05-04T21:08:52.882Z,60.92
2018-05-04T21:11:20.492Z,61.23
2018-05-04T21:13:48.210Z,61.60
2018-05-04T21:16:16.663Z,62.19
2018-05-04T21:18:44.360Z,62.61
2018-05-04T21:21:11.986Z,63.17
2018-05-04T21:23:39.682Z,63.48
2018-05-04T21:26:07.342Z,63.75
2018-05-04T21:28:34.970Z,64.11
2018-05-04T21:31:02.572Z,64.35
2018-05-04T21:33:30.213Z,64.64
2018-05-04T21:35:57.903Z,64.64
2018-05-04T21:38:25.493Z,64.60
2018-05-04T21:40:53.104Z,64.60
2018-05-04T21:43:20.788Z,64.62
2018-05-04T21:45:48.401Z,64.91
2018-05-04T21:48:16.035Z,65.17
2018-05-04T21:50:43.656Z,65.32
2018-05-04T21:53:11.331Z,65.54
2018-05-04T21:55:38.934Z,65.81
2018-05-04T21:58:06.568Z,66.17
2018-05-04T22:00:34.177Z,66.37
2018-05-04T22:03:01.811Z,66.66
2018-05-04T22:05:29.430Z,66.63
2018-05-04T22:07:57.030Z,66.60
2018-05-04T22:10:24.654Z,66.55
2018-05-04T22:12:52.263Z,66.58
2018-05-04T22:15:19.895Z,66.56
2018-05-04T22:17:47.502Z,66.80
2018-05-04T22:20:15.126Z,66.93
2018-05-04T22:22:42.735Z,67.05
2018-05-04T22:25:10.358Z,66.87
2018-05-04T22:27:37.986Z,66.61
2018-05-04T22:30:05.646Z,66.50
2018-05-04T22:32:33.246Z,66.46
2018-05-04T22:35:00.975Z,66.53
2018-05-04T22:37:28.574Z,66.74
2018-05-04T22:39:56.203Z,67.03
2018-05-04T22:42:23.806Z,66.81
2018-05-04T22:44:51.527Z,66.67
2018-05-04T22:47:19.127Z,67.10
2018-05-04T22:49:46.850Z,67.68
2018-05-04T22:52:14.460Z,68.16
2018-05-04T22:54:42.096Z,68.53
2018-05-04T22:57:09.735Z,69.02
2018-05-04T22:59:37.394Z,69.36
2018-05-04T23:02:05.009Z,69.58
2018-05-04T23:04:32.642Z,69.80
2018-05-04T23:07:00.246Z,69.99
2018-05-04T23:09:27.951Z,70.18
2018-05-04T23:11:55.563Z,70.26
2018-05-04T23:14:23.203Z,70.41
2018-05-04T23:16:50.814Z,70.31
2018-05-04T23:19:18.462Z,70.36
2018-05-04T23:21:46.154Z,70.42
2018-05-04T23:24:13.818Z,70.54
2018-05-04T23:26:41.486Z,70.52
2018-05-04T23:29:09.143Z,70.69
2018-05-04T23:31:36.811Z,70.82
2018-05-04T23:34:04.470Z,71.14
2018-05-04T23:36:32.102Z,71.26
2018-05-04T23:38:59.706Z,71.42
2018-05-04T23:41:27.334Z,71.43
2018-05-04T23:43:55.015Z,71.67
2018-05-04T23:46:22.647Z,71.83
2018-05-04T23:48:50.343Z,71.94
2018-05-04T23:51:17.976Z,72.04
2018-05-04T23:53:45.573Z,72.23
2018-05-04T23:56:13.235Z,72.36
2018-05-04T23:58:40.890Z,72.54
